sensor_id;sensor_type;location;lat;lon;timestamp;pressure;altitude;pressure_sealevel;temperature
20103;BMP180;10210;52.284;9.892;2022-10-16T00:00:41;100074.00;;;20.30
20103;BMP180;10210;52.284;9.892;2022-10-16T00:03:09;100064.00;;;20.20
20103;BMP180;10210;52.284;9.892;2022-10-16T00:05:41;100066.00;;;20.20
20103;BMP180;10210;52.284;9.892;2022-10-16T00:08:08;100074.00;;;20.20
20103;BMP180;10210;52.284;9.892;2022-10-16T00:10:34;100077.00;;;20.10
20103;BMP180;10210;52.284;9.892;2022-10-16T00:13:01;100069.00;;;20.10
20103;BMP180;10210;52.284;9.892;2022-10-16T00:15:28;100076.00;;;20.10
20103;BMP180;10210;52.284;9.892;2022-10-16T00:17:54;100067.00;;;20.00
20103;BMP180;10210;52.284;9.892;2022-10-16T00:20:20;100059.00;;;20.00
20103;BMP180;10210;52.284;9.892;2022-10-16T00:22:45;100084.00;;;19.90
20103;BMP180;10210;52.284;9.892;2022-10-16T00:25:11;100089.00;;;19.90
20103;BMP180;10210;52.284;9.892;2022-10-16T00:27:37;100085.00;;;19.90
20103;BMP180;10210;52.284;9.892;2022-10-16T00:30:03;100092.00;;;19.90
20103;BMP180;10210;52.284;9.892;2022-10-16T00:32:29;100086.00;;;19.90
20103;BMP180;10210;52.284;9.892;2022-10-16T00:34:55;100095.00;;;19.90
20103;BMP180;10210;52.284;9.892;2022-10-16T00:37:21;100092.00;;;19.90
20103;BMP180;10210;52.284;9.892;2022-10-16T00:39:46;100099.00;;;19.90
20103;BMP180;10210;52.284;9.892;2022-10-16T00:42:18;100114.00;;;19.90
20103;BMP180;10210;52.284;9.892;2022-10-16T00:44:53;100113.00;;;19.80
20103;BMP180;10210;52.284;9.892;2022-10-16T00:47:37;100109.00;;;19.80
20103;BMP180;10210;52.284;9.892;2022-10-16T00:50:21;100096.00;;;19.80
20103;BMP180;10210;52.284;9.892;2022-10-16T00:52:50;100099.00;;;19.80
20103;BMP180;10210;52.284;9.892;2022-10-16T00:55:17;100111.00;;;19.80
20103;BMP180;10210;52.284;9.892;2022-10-16T00:57:45;100119.00;;;19.80
20103;BMP180;10210;52.284;9.892;2022-10-16T01:00:15;100116.00;;;19.80
20103;BMP180;10210;52.284;9.892;2022-10-16T01:02:41;100123.00;;;19.80
20103;BMP180;10210;52.284;9.892;2022-10-16T01:05:08;100122.00;;;19.70
20103;BMP180;10210;52.284;9.892;2022-10-16T01:10:40;100109.00;;;19.60
20103;BMP180;10210;52.284;9.892;2022-10-16T01:13:18;100102.00;;;19.60
20103;BMP180;10210;52.284;9.892;2022-10-16T01:16:13;100108.00;;;19.50
20103;BMP180;10210;52.284;9.892;2022-10-16T01:18:51;100098.00;;;19.50
20103;BMP180;10210;52.284;9.892;2022-10-16T01:21:36;100095.00;;;19.50
20103;BMP180;10210;52.284;9.892;2022-10-16T01:32:34;100110.00;;;19.40
20103;BMP180;10210;52.284;9.892;2022-10-16T01:38:05;100115.00;;;19.40
20103;BMP180;10210;52.284;9.892;2022-10-16T01:40:36;100104.00;;;19.40
20103;BMP180;10210;52.284;9.892;2022-10-16T01:43:09;100102.00;;;19.40
20103;BMP180;10210;52.284;9.892;2022-10-16T01:45:36;100108.00;;;19.40
20103;BMP180;10210;52.284;9.892;2022-10-16T01:48:04;100114.00;;;19.40
20103;BMP180;10210;52.284;9.892;2022-10-16T01:50:38;100120.00;;;19.40
20103;BMP180;10210;52.284;9.892;2022-10-16T01:53:08;100128.00;;;19.40
20103;BMP180;10210;52.284;9.892;2022-10-16T01:55:42;100127.00;;;19.40
20103;BMP180;10210;52.284;9.892;2022-10-16T01:58:13;100118.00;;;19.40
20103;BMP180;10210;52.284;9.892;2022-10-16T02:00:43;100123.00;;;19.40
20103;BMP180;10210;52.284;9.892;2022-10-16T02:03:12;100124.00;;;19.40
20103;BMP180;10210;52.284;9.892;2022-10-16T02:05:56;100134.00;;;19.40
20103;BMP180;10210;52.284;9.892;2022-10-16T02:08:25;100139.00;;;19.40
20103;BMP180;10210;52.284;9.892;2022-10-16T02:10:56;100131.00;;;19.40
20103;BMP180;10210;52.284;9.892;2022-10-16T02:13:48;100139.00;;;19.40
20103;BMP180;10210;52.284;9.892;2022-10-16T02:16:17;100138.00;;;19.40
20103;BMP180;10210;52.284;9.892;2022-10-16T02:18:44;100144.00;;;19.40
20103;BMP180;10210;52.284;9.892;2022-10-16T02:21:31;100150.00;;;19.40
20103;BMP180;10210;52.284;9.892;2022-10-16T02:24:11;100145.00;;;19.40
20103;BMP180;10210;52.284;9.892;2022-10-16T02:27:12;100152.00;;;19.40
20103;BMP180;10210;52.284;9.892;2022-10-16T02:29:42;100155.00;;;19.40
20103;BMP180;10210;52.284;9.892;2022-10-16T02:32:15;100167.00;;;19.40
20103;BMP180;10210;52.284;9.892;2022-10-16T02:34:43;100162.00;;;19.50
20103;BMP180;10210;52.284;9.892;2022-10-16T02:37:10;100154.00;;;19.50
20103;BMP180;10210;52.284;9.892;2022-10-16T02:39:38;100151.00;;;19.50
20103;BMP180;10210;52.284;9.892;2022-10-16T02:42:04;100151.00;;;19.50
20103;BMP180;10210;52.284;9.892;2022-10-16T02:44:30;100155.00;;;19.50
20103;BMP180;10210;52.284;9.892;2022-10-16T02:46:55;100138.00;;;19.40
20103;BMP180;10210;52.284;9.892;2022-10-16T02:49:21;100144.00;;;19.40
20103;BMP180;10210;52.284;9.892;2022-10-16T02:51:47;100160.00;;;19.40
20103;BMP180;10210;52.284;9.892;2022-10-16T02:54:12;100149.00;;;19.30
20103;BMP180;10210;52.284;9.892;2022-10-16T02:56:38;100147.00;;;19.30
20103;BMP180;10210;52.284;9.892;2022-10-16T02:59:04;100143.00;;;19.30
20103;BMP180;10210;52.284;9.892;2022-10-16T03:01:30;100146.00;;;19.20
20103;BMP180;10210;52.284;9.892;2022-10-16T03:03:55;100139.00;;;19.20
20103;BMP180;10210;52.284;9.892;2022-10-16T03:06:21;100145.00;;;19.20
20103;BMP180;10210;52.284;9.892;2022-10-16T03:08:47;100137.00;;;19.20
20103;BMP180;10210;52.284;9.892;2022-10-16T03:11:12;100137.00;;;19.10
20103;BMP180;10210;52.284;9.892;2022-10-16T03:13:38;100140.00;;;19.10
20103;BMP180;10210;52.284;9.892;2022-10-16T03:16:04;100152.00;;;19.10
20103;BMP180;10210;52.284;9.892;2022-10-16T03:18:29;100146.00;;;19.10
20103;BMP180;10210;52.284;9.892;2022-10-16T03:20:55;100148.00;;;19.00
20103;BMP180;10210;52.284;9.892;2022-10-16T03:23:21;100151.00;;;19.00
20103;BMP180;10210;52.284;9.892;2022-10-16T03:25:46;100156.00;;;19.00
20103;BMP180;10210;52.284;9.892;2022-10-16T03:28:12;100152.00;;;19.00
20103;BMP180;10210;52.284;9.892;2022-10-16T03:30:38;100150.00;;;19.00
20103;BMP180;10210;52.284;9.892;2022-10-16T03:33:05;100144.00;;;19.00
20103;BMP180;10210;52.284;9.892;2022-10-16T03:35:32;100149.00;;;19.00
20103;BMP180;10210;52.284;9.892;2022-10-16T03:37:58;100144.00;;;19.00
20103;BMP180;10210;52.284;9.892;2022-10-16T03:40:24;100145.00;;;18.90
20103;BMP180;10210;52.284;9.892;2022-10-16T03:42:49;100144.00;;;18.90
20103;BMP180;10210;52.284;9.892;2022-10-16T03:45:15;100151.00;;;18.80
20103;BMP180;10210;52.284;9.892;2022-10-16T03:47:41;100153.00;;;18.80
20103;BMP180;10210;52.284;9.892;2022-10-16T03:50:07;100155.00;;;18.80
20103;BMP180;10210;52.284;9.892;2022-10-16T03:52:33;100142.00;;;18.80
20103;BMP180;10210;52.284;9.892;2022-10-16T03:54:59;100147.00;;;18.80
20103;BMP180;10210;52.284;9.892;2022-10-16T03:57:25;100142.00;;;18.80
20103;BMP180;10210;52.284;9.892;2022-10-16T03:59:51;100143.00;;;18.70
20103;BMP180;10210;52.284;9.892;2022-10-16T04:02:16;100145.00;;;18.70
20103;BMP180;10210;52.284;9.892;2022-10-16T04:04:42;100141.00;;;18.70
20103;BMP180;10210;52.284;9.892;2022-10-16T04:07:08;100150.00;;;18.70
20103;BMP180;10210;52.284;9.892;2022-10-16T04:09:34;100149.00;;;18.70
20103;BMP180;10210;52.284;9.892;2022-10-16T04:11:59;100158.00;;;18.70
20103;BMP180;10210;52.284;9.892;2022-10-16T04:14:25;100148.00;;;18.70
20103;BMP180;10210;52.284;9.892;2022-10-16T04:16:51;100155.00;;;18.70
20103;BMP180;10210;52.284;9.892;2022-10-16T04:19:16;100164.00;;;18.70
20103;BMP180;10210;52.284;9.892;2022-10-16T04:21:42;100175.00;;;18.70
20103;BMP180;10210;52.284;9.892;2022-10-16T04:24:08;100181.00;;;18.70
20103;BMP180;10210;52.284;9.892;2022-10-16T04:26:33;100172.00;;;18.80
20103;BMP180;10210;52.284;9.892;2022-10-16T04:28:59;100188.00;;;18.80
20103;BMP180;10210;52.284;9.892;2022-10-16T04:31:25;100192.00;;;18.80
20103;BMP180;10210;52.284;9.892;2022-10-16T04:33:50;100188.00;;;18.80
20103;BMP180;10210;52.284;9.892;2022-10-16T04:36:16;100182.00;;;18.80
20103;BMP180;10210;52.284;9.892;2022-10-16T04:38:41;100189.00;;;18.80
20103;BMP180;10210;52.284;9.892;2022-10-16T04:41:08;100194.00;;;18.70
20103;BMP180;10210;52.284;9.892;2022-10-16T04:43:34;100192.00;;;18.70
20103;BMP180;10210;52.284;9.892;2022-10-16T04:46:00;100186.00;;;18.70
20103;BMP180;10210;52.284;9.892;2022-10-16T04:48:27;100172.00;;;18.70
20103;BMP180;10210;52.284;9.892;2022-10-16T04:50:53;100165.00;;;18.70
20103;BMP180;10210;52.284;9.892;2022-10-16T04:53:19;100186.00;;;18.70
20103;BMP180;10210;52.284;9.892;2022-10-16T04:55:45;100172.00;;;18.70
20103;BMP180;10210;52.284;9.892;2022-10-16T04:58:11;100178.00;;;18.70
20103;BMP180;10210;52.284;9.892;2022-10-16T05:00:37;100189.00;;;18.70
20103;BMP180;10210;52.284;9.892;2022-10-16T05:03:04;100188.00;;;18.70
20103;BMP180;10210;52.284;9.892;2022-10-16T05:05:33;100186.00;;;18.70
20103;BMP180;10210;52.284;9.892;2022-10-16T05:07:59;100196.00;;;18.70
20103;BMP180;10210;52.284;9.892;2022-10-16T05:10:24;100200.00;;;18.70
20103;BMP180;10210;52.284;9.892;2022-10-16T05:12:50;100204.00;;;18.70
20103;BMP180;10210;52.284;9.892;2022-10-16T05:15:17;100208.00;;;18.70
20103;BMP180;10210;52.284;9.892;2022-10-16T05:17:44;100201.00;;;18.80
20103;BMP180;10210;52.284;9.892;2022-10-16T05:20:10;100206.00;;;18.80
20103;BMP180;10210;52.284;9.892;2022-10-16T05:22:36;100210.00;;;18.80
20103;BMP180;10210;52.284;9.892;2022-10-16T05:25:01;100210.00;;;18.80
20103;BMP180;10210;52.284;9.892;2022-10-16T05:27:28;100212.00;;;18.80
20103;BMP180;10210;52.284;9.892;2022-10-16T05:29:54;100219.00;;;18.80
20103;BMP180;10210;52.284;9.892;2022-10-16T05:32:20;100230.00;;;18.80
20103;BMP180;10210;52.284;9.892;2022-10-16T05:34:46;100232.00;;;18.80
20103;BMP180;10210;52.284;9.892;2022-10-16T05:37:12;100216.00;;;18.80
20103;BMP180;10210;52.284;9.892;2022-10-16T05:39:38;100236.00;;;18.80
20103;BMP180;10210;52.284;9.892;2022-10-16T05:42:05;100240.00;;;18.80
20103;BMP180;10210;52.284;9.892;2022-10-16T05:44:31;100224.00;;;18.80
20103;BMP180;10210;52.284;9.892;2022-10-16T05:46:56;100233.00;;;18.80
20103;BMP180;10210;52.284;9.892;2022-10-16T05:49:22;100230.00;;;18.80
20103;BMP180;10210;52.284;9.892;2022-10-16T05:51:48;100227.00;;;18.80
20103;BMP180;10210;52.284;9.892;2022-10-16T05:54:14;100233.00;;;18.80
20103;BMP180;10210;52.284;9.892;2022-10-16T05:56:39;100238.00;;;18.80
20103;BMP180;10210;52.284;9.892;2022-10-16T05:59:05;100230.00;;;18.80
20103;BMP180;10210;52.284;9.892;2022-10-16T06:01:32;100241.00;;;18.80
20103;BMP180;10210;52.284;9.892;2022-10-16T06:03:58;100249.00;;;18.80
20103;BMP180;10210;52.284;9.892;2022-10-16T06:06:27;100252.00;;;18.70
20103;BMP180;10210;52.284;9.892;2022-10-16T06:08:56;100243.00;;;18.70
20103;BMP180;10210;52.284;9.892;2022-10-16T06:11:27;100260.00;;;18.60
20103;BMP180;10210;52.284;9.892;2022-10-16T06:13:57;100245.00;;;18.60
20103;BMP180;10210;52.284;9.892;2022-10-16T06:16:25;100249.00;;;18.60
20103;BMP180;10210;52.284;9.892;2022-10-16T06:18:53;100244.00;;;18.60
20103;BMP180;10210;52.284;9.892;2022-10-16T06:21:23;100242.00;;;18.50
20103;BMP180;10210;52.284;9.892;2022-10-16T06:23:50;100257.00;;;18.50
20103;BMP180;10210;52.284;9.892;2022-10-16T06:26:19;100271.00;;;18.50
20103;BMP180;10210;52.284;9.892;2022-10-16T06:28:46;100272.00;;;18.50
20103;BMP180;10210;52.284;9.892;2022-10-16T06:31:13;100266.00;;;18.50
20103;BMP180;10210;52.284;9.892;2022-10-16T06:33:40;100271.00;;;18.50
20103;BMP180;10210;52.284;9.892;2022-10-16T06:36:12;100289.00;;;18.50
20103;BMP180;10210;52.284;9.892;2022-10-16T06:38:38;100278.00;;;18.50
20103;BMP180;10210;52.284;9.892;2022-10-16T06:41:06;100281.00;;;18.50
20103;BMP180;10210;52.284;9.892;2022-10-16T06:43:33;100288.00;;;18.50
20103;BMP180;10210;52.284;9.892;2022-10-16T06:46:02;100291.00;;;18.60
20103;BMP180;10210;52.284;9.892;2022-10-16T06:48:29;100281.00;;;18.60
20103;BMP180;10210;52.284;9.892;2022-10-16T06:51:25;100301.00;;;18.50
20103;BMP180;10210;52.284;9.892;2022-10-16T06:53:54;100289.00;;;18.60
20103;BMP180;10210;52.284;9.892;2022-10-16T06:56:27;100290.00;;;18.60
20103;BMP180;10210;52.284;9.892;2022-10-16T06:58:56;100303.00;;;18.70
20103;BMP180;10210;52.284;9.892;2022-10-16T07:01:24;100306.00;;;18.70
20103;BMP180;10210;52.284;9.892;2022-10-16T07:03:50;100298.00;;;18.80
20103;BMP180;10210;52.284;9.892;2022-10-16T07:06:20;100302.00;;;18.80
20103;BMP180;10210;52.284;9.892;2022-10-16T07:08:47;100306.00;;;18.90
20103;BMP180;10210;52.284;9.892;2022-10-16T07:11:20;100297.00;;;18.90
20103;BMP180;10210;52.284;9.892;2022-10-16T07:13:47;100301.00;;;18.90
20103;BMP180;10210;52.284;9.892;2022-10-16T07:16:19;100309.00;;;18.90
20103;BMP180;10210;52.284;9.892;2022-10-16T07:18:46;100304.00;;;19.00
20103;BMP180;10210;52.284;9.892;2022-10-16T07:21:18;100320.00;;;19.00
20103;BMP180;10210;52.284;9.892;2022-10-16T07:23:45;100324.00;;;19.00
20103;BMP180;10210;52.284;9.892;2022-10-16T07:26:11;100323.00;;;19.10
20103;BMP180;10210;52.284;9.892;2022-10-16T07:28:38;100331.00;;;19.10
20103;BMP180;10210;52.284;9.892;2022-10-16T07:31:10;100326.00;;;19.20
20103;BMP180;10210;52.284;9.892;2022-10-16T07:33:38;100335.00;;;19.20
20103;BMP180;10210;52.284;9.892;2022-10-16T07:36:04;100335.00;;;19.20
20103;BMP180;10210;52.284;9.892;2022-10-16T07:38:30;100345.00;;;19.20
20103;BMP180;10210;52.284;9.892;2022-10-16T07:41:02;100351.00;;;19.30
20103;BMP180;10210;52.284;9.892;2022-10-16T07:43:30;100346.00;;;19.30
20103;BMP180;10210;52.284;9.892;2022-10-16T07:45:56;100346.00;;;19.30
20103;BMP180;10210;52.284;9.892;2022-10-16T07:48:24;100360.00;;;19.30
20103;BMP180;10210;52.284;9.892;2022-10-16T07:50:51;100362.00;;;19.40
20103;BMP180;10210;52.284;9.892;2022-10-16T07:53:17;100370.00;;;19.40
20103;BMP180;10210;52.284;9.892;2022-10-16T07:55:43;100370.00;;;19.40
20103;BMP180;10210;52.284;9.892;2022-10-16T07:58:09;100370.00;;;19.50
20103;BMP180;10210;52.284;9.892;2022-10-16T08:00:37;100379.00;;;19.50
20103;BMP180;10210;52.284;9.892;2022-10-16T08:03:03;100381.00;;;19.50
20103;BMP180;10210;52.284;9.892;2022-10-16T08:05:32;100383.00;;;19.50
20103;BMP180;10210;52.284;9.892;2022-10-16T08:07:58;100382.00;;;19.60
20103;BMP180;10210;52.284;9.892;2022-10-16T08:10:26;100386.00;;;19.60
20103;BMP180;10210;52.284;9.892;2022-10-16T08:12:53;100393.00;;;19.70
20103;BMP180;10210;52.284;9.892;2022-10-16T08:15:19;100395.00;;;19.70
20103;BMP180;10210;52.284;9.892;2022-10-16T08:17:58;100403.00;;;19.80
20103;BMP180;10210;52.284;9.892;2022-10-16T08:20:26;100405.00;;;19.90
20103;BMP180;10210;52.284;9.892;2022-10-16T08:22:52;100415.00;;;20.00
20103;BMP180;10210;52.284;9.892;2022-10-16T08:25:17;100416.00;;;20.10
20103;BMP180;10210;52.284;9.892;2022-10-16T08:27:43;100416.00;;;20.20
20103;BMP180;10210;52.284;9.892;2022-10-16T08:30:11;100414.00;;;20.40
20103;BMP180;10210;52.284;9.892;2022-10-16T08:32:36;100422.00;;;20.60
20103;BMP180;10210;52.284;9.892;2022-10-16T08:35:02;100422.00;;;20.80
20103;BMP180;10210;52.284;9.892;2022-10-16T08:37:33;100420.00;;;21.10
20103;BMP180;10210;52.284;9.892;2022-10-16T08:39:59;100431.00;;;21.40
20103;BMP180;10210;52.284;9.892;2022-10-16T08:50:51;100425.00;;;22.10
20103;BMP180;10210;52.284;9.892;2022-10-16T08:53:36;100435.00;;;22.10
20103;BMP180;10210;52.284;9.892;2022-10-16T08:56:03;100440.00;;;22.10
20103;BMP180;10210;52.284;9.892;2022-10-16T08:58:30;100444.00;;;22.00
20103;BMP180;10210;52.284;9.892;2022-10-16T09:01:03;100451.00;;;21.90
20103;BMP180;10210;52.284;9.892;2022-10-16T09:06:45;100460.00;;;21.70
20103;BMP180;10210;52.284;9.892;2022-10-16T09:15:01;100470.00;;;21.60
20103;BMP180;10210;52.284;9.892;2022-10-16T09:17:44;100476.00;;;21.80
20103;BMP180;10210;52.284;9.892;2022-10-16T09:20:44;100471.00;;;22.00
20103;BMP180;10210;52.284;9.892;2022-10-16T09:23:25;100486.00;;;22.30
20103;BMP180;10210;52.284;9.892;2022-10-16T09:25:54;100476.00;;;22.60
20103;BMP180;10210;52.284;9.892;2022-10-16T09:28:20;100476.00;;;22.90
20103;BMP180;10210;52.284;9.892;2022-10-16T09:30:47;100489.00;;;23.10
20103;BMP180;10210;52.284;9.892;2022-10-16T09:33:18;100482.00;;;23.30
20103;BMP180;10210;52.284;9.892;2022-10-16T09:35:52;100500.00;;;23.50
20103;BMP180;10210;52.284;9.892;2022-10-16T09:38:36;100499.00;;;23.60
20103;BMP180;10210;52.284;9.892;2022-10-16T09:41:30;100510.00;;;23.80
20103;BMP180;10210;52.284;9.892;2022-10-16T09:44:01;100513.00;;;23.90
20103;BMP180;10210;52.284;9.892;2022-10-16T09:46:36;100509.00;;;24.00
20103;BMP180;10210;52.284;9.892;2022-10-16T09:49:25;100525.00;;;24.00
20103;BMP180;10210;52.284;9.892;2022-10-16T09:52:04;100534.00;;;24.10
20103;BMP180;10210;52.284;9.892;2022-10-16T09:54:30;100518.00;;;24.10
20103;BMP180;10210;52.284;9.892;2022-10-16T09:57:12;100524.00;;;24.00
20103;BMP180;10210;52.284;9.892;2022-10-16T09:59:53;100530.00;;;24.00
20103;BMP180;10210;52.284;9.892;2022-10-16T10:02:39;100531.00;;;24.00
20103;BMP180;10210;52.284;9.892;2022-10-16T10:05:26;100534.00;;;23.90
20103;BMP180;10210;52.284;9.892;2022-10-16T10:08:00;100548.00;;;23.90
20103;BMP180;10210;52.284;9.892;2022-10-16T10:10:34;100544.00;;;23.90
20103;BMP180;10210;52.284;9.892;2022-10-16T10:13:02;100549.00;;;23.90
20103;BMP180;10210;52.284;9.892;2022-10-16T10:15:35;100542.00;;;23.80
20103;BMP180;10210;52.284;9.892;2022-10-16T10:18:02;100551.00;;;23.80
20103;BMP180;10210;52.284;9.892;2022-10-16T10:20:34;100542.00;;;23.70
20103;BMP180;10210;52.284;9.892;2022-10-16T10:23:25;100542.00;;;23.50
20103;BMP180;10210;52.284;9.892;2022-10-16T10:32:17;100548.00;;;23.10
20103;BMP180;10210;52.284;9.892;2022-10-16T10:35:17;100551.00;;;23.00
20103;BMP180;10210;52.284;9.892;2022-10-16T10:55:03;100576.00;;;22.60
20103;BMP180;10210;52.284;9.892;2022-10-16T11:01:09;100567.00;;;22.40
20103;BMP180;10210;52.284;9.892;2022-10-16T11:04:06;100569.00;;;22.40
20103;BMP180;10210;52.284;9.892;2022-10-16T11:06:56;100561.00;;;22.30
20103;BMP180;10210;52.284;9.892;2022-10-16T11:09:28;100561.00;;;22.30
20103;BMP180;10210;52.284;9.892;2022-10-16T11:12:21;100569.00;;;22.30
20103;BMP180;10210;52.284;9.892;2022-10-16T11:15:14;100572.00;;;22.30
20103;BMP180;10210;52.284;9.892;2022-10-16T11:17:59;100564.00;;;22.20
20103;BMP180;10210;52.284;9.892;2022-10-16T11:20:40;100564.00;;;22.30
20103;BMP180;10210;52.284;9.892;2022-10-16T11:23:31;100568.00;;;22.30
20103;BMP180;10210;52.284;9.892;2022-10-16T11:26:11;100566.00;;;22.40
20103;BMP180;10210;52.284;9.892;2022-10-16T11:28:54;100558.00;;;22.40
20103;BMP180;10210;52.284;9.892;2022-10-16T11:31:49;100579.00;;;22.50
20103;BMP180;10210;52.284;9.892;2022-10-16T11:34:31;100577.00;;;22.60
20103;BMP180;10210;52.284;9.892;2022-10-16T11:37:04;100586.00;;;22.60
20103;BMP180;10210;52.284;9.892;2022-10-16T11:39:31;100588.00;;;22.70
20103;BMP180;10210;52.284;9.892;2022-10-16T11:47:44;100593.00;;;22.60
20103;BMP180;10210;52.284;9.892;2022-10-16T11:50:52;100590.00;;;22.50
20103;BMP180;10210;52.284;9.892;2022-10-16T11:53:45;100588.00;;;22.50
20103;BMP180;10210;52.284;9.892;2022-10-16T11:56:16;100577.00;;;22.60
20103;BMP180;10210;52.284;9.892;2022-10-16T11:59:38;100591.00;;;22.70
20103;BMP180;10210;52.284;9.892;2022-10-16T12:01:44;100591.00;;;22.70
20103;BMP180;10210;52.284;9.892;2022-10-16T12:04:26;100592.00;;;22.80
20103;BMP180;10210;52.284;9.892;2022-10-16T12:07:07;100591.00;;;22.90
20103;BMP180;10210;52.284;9.892;2022-10-16T12:09:40;100594.00;;;23.00
20103;BMP180;10210;52.284;9.892;2022-10-16T12:12:27;100599.00;;;23.00
20103;BMP180;10210;52.284;9.892;2022-10-16T12:17:50;100592.00;;;23.20
20103;BMP180;10210;52.284;9.892;2022-10-16T12:20:32;100589.00;;;23.20
20103;BMP180;10210;52.284;9.892;2022-10-16T12:23:00;100590.00;;;23.40
20103;BMP180;10210;52.284;9.892;2022-10-16T12:25:39;100599.00;;;23.40
20103;BMP180;10210;52.284;9.892;2022-10-16T12:30:42;100596.00;;;23.60
20103;BMP180;10210;52.284;9.892;2022-10-16T12:33:27;100600.00;;;23.60
20103;BMP180;10210;52.284;9.892;2022-10-16T12:35:55;100594.00;;;23.80
20103;BMP180;10210;52.284;9.892;2022-10-16T12:38:51;100599.00;;;23.80
20103;BMP180;10210;52.284;9.892;2022-10-16T12:41:44;100592.00;;;23.80
20103;BMP180;10210;52.284;9.892;2022-10-16T12:44:25;100600.00;;;23.90
20103;BMP180;10210;52.284;9.892;2022-10-16T12:46:54;100607.00;;;24.00
20103;BMP180;10210;52.284;9.892;2022-10-16T12:49:37;100607.00;;;24.00
20103;BMP180;10210;52.284;9.892;2022-10-16T12:52:37;100615.00;;;24.00
20103;BMP180;10210;52.284;9.892;2022-10-16T12:55:05;100609.00;;;24.10
20103;BMP180;10210;52.284;9.892;2022-10-16T12:58:09;100609.00;;;24.10
20103;BMP180;10210;52.284;9.892;2022-10-16T13:00:58;100616.00;;;24.20
20103;BMP180;10210;52.284;9.892;2022-10-16T13:03:54;100627.00;;;24.20
20103;BMP180;10210;52.284;9.892;2022-10-16T13:06:42;100637.00;;;24.30
20103;BMP180;10210;52.284;9.892;2022-10-16T13:12:41;100633.00;;;24.30
20103;BMP180;10210;52.284;9.892;2022-10-16T13:15:47;100639.00;;;24.30
20103;BMP180;10210;52.284;9.892;2022-10-16T13:18:26;100642.00;;;24.40
20103;BMP180;10210;52.284;9.892;2022-10-16T13:21:33;100641.00;;;24.40
20103;BMP180;10210;52.284;9.892;2022-10-16T13:27:02;100652.00;;;24.50
20103;BMP180;10210;52.284;9.892;2022-10-16T13:29:32;100650.00;;;24.60
20103;BMP180;10210;52.284;9.892;2022-10-16T13:32:06;100658.00;;;24.60
20103;BMP180;10210;52.284;9.892;2022-10-16T13:34:43;100661.00;;;24.60
20103;BMP180;10210;52.284;9.892;2022-10-16T13:37:21;100654.00;;;24.60
20103;BMP180;10210;52.284;9.892;2022-10-16T13:39:48;100656.00;;;24.70
20103;BMP180;10210;52.284;9.892;2022-10-16T13:42:28;100658.00;;;24.70
20103;BMP180;10210;52.284;9.892;2022-10-16T13:44:56;100667.00;;;24.80
20103;BMP180;10210;52.284;9.892;2022-10-16T13:47:27;100662.00;;;24.80
20103;BMP180;10210;52.284;9.892;2022-10-16T13:50:11;100669.00;;;24.90
20103;BMP180;10210;52.284;9.892;2022-10-16T13:52:37;100674.00;;;25.00
20103;BMP180;10210;52.284;9.892;2022-10-16T13:55:16;100675.00;;;25.00
20103;BMP180;10210;52.284;9.892;2022-10-16T13:57:42;100678.00;;;25.00
20103;BMP180;10210;52.284;9.892;2022-10-16T14:00:20;100677.00;;;25.00
20103;BMP180;10210;52.284;9.892;2022-10-16T14:02:55;100669.00;;;25.00
20103;BMP180;10210;52.284;9.892;2022-10-16T14:05:22;100677.00;;;25.00
20103;BMP180;10210;52.284;9.892;2022-10-16T14:07:51;100685.00;;;25.10
20103;BMP180;10210;52.284;9.892;2022-10-16T14:10:27;100692.00;;;25.00
20103;BMP180;10210;52.284;9.892;2022-10-16T14:13:05;100694.00;;;25.00
20103;BMP180;10210;52.284;9.892;2022-10-16T14:15:35;100691.00;;;25.00
20103;BMP180;10210;52.284;9.892;2022-10-16T14:18:03;100696.00;;;25.00
20103;BMP180;10210;52.284;9.892;2022-10-16T14:20:33;100696.00;;;25.00
20103;BMP180;10210;52.284;9.892;2022-10-16T14:23:18;100695.00;;;25.00
20103;BMP180;10210;52.284;9.892;2022-10-16T14:25:45;100702.00;;;25.00
20103;BMP180;10210;52.284;9.892;2022-10-16T14:28:20;100704.00;;;25.00
20103;BMP180;10210;52.284;9.892;2022-10-16T14:30:57;100720.00;;;25.00
20103;BMP180;10210;52.284;9.892;2022-10-16T14:38:36;100716.00;;;25.10
20103;BMP180;10210;52.284;9.892;2022-10-16T14:41:04;100724.00;;;25.00
20103;BMP180;10210;52.284;9.892;2022-10-16T14:43:39;100707.00;;;25.00
20103;BMP180;10210;52.284;9.892;2022-10-16T14:46:14;100704.00;;;25.00
20103;BMP180;10210;52.284;9.892;2022-10-16T14:48:43;100715.00;;;25.00
20103;BMP180;10210;52.284;9.892;2022-10-16T14:51:20;100710.00;;;24.90
20103;BMP180;10210;52.284;9.892;2022-10-16T14:53:46;100719.00;;;24.90
20103;BMP180;10210;52.284;9.892;2022-10-16T14:56:24;100715.00;;;24.90
20103;BMP180;10210;52.284;9.892;2022-10-16T14:58:51;100715.00;;;24.90
20103;BMP180;10210;52.284;9.892;2022-10-16T15:01:17;100725.00;;;24.90
20103;BMP180;10210;52.284;9.892;2022-10-16T15:03:44;100718.00;;;24.90
20103;BMP180;10210;52.284;9.892;2022-10-16T15:06:12;100715.00;;;24.90
20103;BMP180;10210;52.284;9.892;2022-10-16T15:08:38;100720.00;;;24.90
20103;BMP180;10210;52.284;9.892;2022-10-16T15:11:05;100720.00;;;24.90
20103;BMP180;10210;52.284;9.892;2022-10-16T15:13:31;100719.00;;;24.90
20103;BMP180;10210;52.284;9.892;2022-10-16T15:15:57;100734.00;;;24.90
20103;BMP180;10210;52.284;9.892;2022-10-16T15:18:23;100737.00;;;24.90
20103;BMP180;10210;52.284;9.892;2022-10-16T15:20:51;100729.00;;;24.90
20103;BMP180;10210;52.284;9.892;2022-10-16T15:23:22;100743.00;;;24.90
20103;BMP180;10210;52.284;9.892;2022-10-16T15:25:53;100743.00;;;24.90
20103;BMP180;10210;52.284;9.892;2022-10-16T15:28:21;100744.00;;;25.00
20103;BMP180;10210;52.284;9.892;2022-10-16T15:30:51;100746.00;;;25.00
20103;BMP180;10210;52.284;9.892;2022-10-16T15:33:26;100750.00;;;25.00
20103;BMP180;10210;52.284;9.892;2022-10-16T15:35:54;100745.00;;;25.00
20103;BMP180;10210;52.284;9.892;2022-10-16T15:38:22;100741.00;;;25.00
20103;BMP180;10210;52.284;9.892;2022-10-16T15:40:49;100744.00;;;24.90
20103;BMP180;10210;52.284;9.892;2022-10-16T15:43:15;100742.00;;;24.90